createdAt,value
2023-01-23T00:01:47.233Z,38.47
2023-01-23T00:04:17.178Z,38.70
2023-01-23T00:06:50.656Z,45.25
2023-01-23T00:09:21.730Z,39.88
2023-01-23T00:11:52.798Z,39.75
2023-01-23T00:14:21.618Z,41.67
2023-01-23T00:16:53.254Z,40.38
2023-01-23T00:19:29.437Z,38.78
2023-01-23T00:22:01.695Z,43.65
2023-01-23T00:24:37.033Z,39.13
2023-01-23T00:27:12.215Z,37.10
2023-01-23T00:29:40.639Z,38.55
2023-01-23T00:32:09.308Z,40.17
2023-01-23T00:34:38.889Z,42.05
2023-01-23T00:37:09.847Z,38.78
2023-01-23T00:39:38.278Z,46.95
2023-01-23T00:42:12.860Z,42.22
2023-01-23T00:44:43.900Z,43.13
2023-01-23T00:47:15.506Z,44.67
2023-01-23T00:49:44.788Z,40.90
2023-01-23T00:52:13.155Z,40.72
2023-01-23T00:54:47.233Z,44.00
2023-01-23T00:57:18.792Z,36.00
2023-01-23T00:59:53.903Z,41.53
2023-01-23T01:02:26.684Z,39.42
2023-01-23T01:05:04.928Z,38.47
2023-01-23T01:07:40.171Z,38.17
2023-01-23T01:10:12.230Z,35.25
2023-01-23T01:12:47.608Z,38.33
2023-01-23T01:15:16.205Z,40.20
2023-01-23T01:18:03.779Z,34.08
2023-01-23T01:20:41.288Z,40.05
2023-01-23T01:23:10.142Z,43.22
2023-01-23T01:25:39.002Z,37.53
2023-01-23T01:28:08.149Z,34.53
2023-01-23T01:30:39.830Z,34.38
2023-01-23T01:33:12.758Z,36.55
2023-01-23T01:35:44.426Z,37.38
2023-01-23T01:38:13.145Z,40.80
2023-01-23T01:40:41.840Z,42.97
2023-01-23T01:43:18.895Z,44.45
2023-01-23T01:46:09.446Z,39.05
2023-01-23T01:48:46.924Z,45.08
2023-01-23T01:51:29.648Z,36.03
2023-01-23T01:54:06.695Z,40.28
2023-01-23T01:56:52.398Z,36.72
2023-01-23T01:59:22.661Z,38.60
2023-01-23T02:02:04.856Z,35.25
2023-01-23T02:04:38.039Z,41.85
2023-01-23T02:07:12.535Z,36.55
2023-01-23T02:09:41.978Z,40.47
2023-01-23T02:12:13.118Z,37.00
2023-01-23T02:14:46.303Z,37.80
2023-01-23T02:17:16.140Z,38.75
2023-01-23T02:19:49.995Z,36.78
2023-01-23T02:22:29.840Z,44.22
2023-01-23T02:25:05.835Z,45.72
2023-01-23T02:27:35.056Z,37.67
2023-01-23T02:30:06.117Z,38.92
2023-01-23T02:32:51.781Z,39.38
2023-01-23T02:35:28.079Z,41.10
2023-01-23T02:38:05.533Z,38.05
2023-01-23T02:40:41.554Z,40.92
2023-01-23T02:43:17.205Z,40.13
2023-01-23T02:45:54.756Z,40.45
2023-01-23T02:48:23.504Z,40.85
2023-01-23T02:50:52.209Z,38.53
2023-01-23T02:53:25.722Z,37.00
2023-01-23T02:55:54.675Z,42.67
2023-01-23T02:58:43.538Z,42.95
2023-01-23T03:01:12.934Z,36.60
2023-01-23T03:03:53.483Z,44.47
2023-01-23T03:06:24.580Z,33.47
2023-01-23T03:08:56.199Z,35.80
2023-01-23T03:11:27.326Z,34.60
2023-01-23T03:14:00.633Z,38.42
2023-01-23T03:16:32.753Z,36.50
2023-01-23T03:19:11.925Z,42.38
2023-01-23T03:21:52.343Z,35.95
2023-01-23T03:24:29.913Z,35.72
2023-01-23T03:26:58.139Z,40.03
2023-01-23T03:29:46.750Z,37.03
2023-01-23T03:32:17.586Z,41.80
2023-01-23T03:34:46.337Z,43.80
2023-01-23T03:37:19.505Z,46.45
2023-01-23T03:40:07.176Z,42.70
2023-01-23T03:42:37.475Z,40.50
2023-01-23T03:45:08.243Z,40.90
2023-01-23T03:47:42.366Z,42.50
2023-01-23T03:50:11.998Z,43.38
2023-01-23T03:52:42.823Z,49.70
2023-01-23T03:55:12.375Z,44.42
2023-01-23T03:57:41.927Z,51.05
2023-01-23T04:00:19.188Z,53.40
2023-01-23T04:03:16.132Z,50.25
2023-01-23T04:05:47.302Z,52.10
2023-01-23T04:08:19.153Z,54.47
2023-01-23T04:10:48.435Z,56.40
2023-01-23T04:13:21.140Z,52.25
2023-01-23T04:15:54.653Z,53.03
2023-01-23T04:18:24.589Z,52.53
2023-01-23T04:20:56.055Z,50.08
2023-01-23T04:23:33.715Z,48.85
2023-01-23T04:26:03.042Z,52.97
2023-01-23T04:28:34.392Z,53.80
2023-01-23T04:31:03.618Z,52.05
2023-01-23T04:33:35.586Z,46.65
2023-01-23T04:36:06.385Z,52.78
2023-01-23T04:38:36.711Z,51.83
2023-01-23T04:41:20.890Z,44.60
2023-01-23T04:43:51.693Z,52.95
2023-01-23T04:46:26.803Z,46.00
2023-01-23T04:49:04.796Z,44.72
2023-01-23T04:51:39.477Z,47.17
2023-01-23T04:54:08.364Z,44.80
2023-01-23T04:56:39.463Z,42.08
2023-01-23T04:59:10.519Z,46.33
2023-01-23T05:01:41.799Z,49.65
2023-01-23T05:04:13.814Z,50.30
2023-01-23T05:06:44.825Z,43.63
2023-01-23T05:09:16.914Z,44.13
2023-01-23T05:11:57.893Z,40.15
2023-01-23T05:14:36.407Z,43.97
2023-01-23T05:17:07.597Z,41.42
2023-01-23T05:19:52.678Z,44.75
2023-01-23T05:22:25.072Z,42.83
2023-01-23T05:24:54.536Z,45.03
2023-01-23T05:27:30.047Z,47.88
2023-01-23T05:30:00.377Z,35.30
2023-01-23T05:32:52.412Z,50.72
2023-01-23T05:35:24.744Z,37.60
2023-01-23T05:37:54.185Z,46.05
2023-01-23T05:40:26.029Z,40.97
2023-01-23T05:43:20.572Z,35.03
2023-01-23T05:46:29.624Z,36.00
2023-01-23T05:48:59.488Z,32.80
2023-01-23T05:51:32.553Z,34.67
2023-01-23T05:56:31.574Z,31.58
2023-01-23T05:59:20.893Z,34.75
2023-01-23T06:02:07.835Z,32.67
2023-01-23T06:04:49.084Z,27.27
2023-01-23T06:07:27.265Z,35.22
2023-01-23T06:09:59.183Z,34.92
2023-01-23T06:12:28.229Z,30.92
2023-01-23T06:15:01.330Z,31.92
2023-01-23T06:17:35.447Z,36.33
2023-01-23T06:20:07.300Z,34.30
2023-01-23T06:22:39.132Z,37.50
2023-01-23T06:25:12.449Z,37.28
2023-01-23T06:27:45.567Z,36.38
2023-01-23T06:30:15.725Z,36.38
2023-01-23T06:33:06.745Z,35.03
2023-01-23T06:35:39.784Z,36.75
2023-01-23T06:38:13.902Z,33.95
2023-01-23T06:40:44.771Z,36.25
2023-01-23T06:43:36.477Z,40.75
2023-01-23T06:46:08.689Z,37.80
2023-01-23T06:48:37.830Z,38.30
2023-01-23T06:51:06.431Z,33.83
2023-01-23T06:53:34.804Z,36.75
2023-01-23T06:56:05.501Z,42.42
2023-01-23T06:58:38.675Z,40.53
2023-01-23T07:01:12.143Z,38.75
2023-01-23T07:04:01.736Z,42.20
2023-01-23T07:06:32.142Z,45.70
2023-01-23T07:09:03.760Z,38.92
2023-01-23T07:11:37.343Z,40.08
2023-01-23T07:14:07.228Z,42.92
2023-01-23T07:16:37.805Z,41.28
2023-01-23T07:19:07.377Z,39.67
2023-01-23T07:21:41.084Z,45.05
2023-01-23T07:24:10.787Z,41.45
2023-01-23T07:26:42.009Z,37.97
2023-01-23T07:29:12.095Z,44.40
2023-01-23T07:31:40.535Z,39.85
2023-01-23T07:34:11.632Z,37.25
2023-01-23T07:36:41.106Z,41.92
2023-01-23T07:39:09.949Z,39.60
2023-01-23T07:41:40.275Z,39.63
2023-01-23T07:44:17.795Z,48.72
2023-01-23T07:49:22.227Z,41.33
2023-01-23T07:51:53.834Z,45.40
2023-01-23T07:54:22.543Z,41.70
2023-01-23T07:56:53.619Z,47.83
2023-01-23T07:59:23.757Z,51.08
2023-01-23T08:01:52.675Z,51.50
2023-01-23T08:04:21.982Z,65.60
2023-01-23T08:06:52.785Z,58.50
2023-01-23T08:09:21.371Z,55.40
2023-01-23T08:11:52.159Z,55.50
2023-01-23T08:14:21.547Z,52.90
2023-01-23T08:16:53.804Z,55.72
2023-01-23T08:19:25.300Z,56.47
2023-01-23T08:21:53.782Z,48.60
2023-01-23T08:24:22.209Z,57.97
2023-01-23T08:26:52.696Z,53.35
2023-01-23T08:29:26.629Z,55.17
2023-01-23T08:31:55.144Z,59.13
2023-01-23T08:34:24.997Z,45.20
2023-01-23T08:36:53.347Z,52.45
2023-01-23T08:39:22.049Z,52.10
2023-01-23T08:41:50.238Z,56.22
2023-01-23T08:44:18.740Z,51.88
2023-01-23T08:46:47.845Z,46.47
2023-01-23T08:49:20.326Z,52.08
2023-01-23T08:51:48.779Z,46.15
2023-01-23T08:54:18.825Z,43.20
2023-01-23T08:56:47.372Z,40.60
2023-01-23T08:59:16.064Z,45.25
2023-01-23T09:01:49.767Z,46.92
2023-01-23T09:04:18.734Z,37.25
2023-01-23T09:06:49.586Z,45.58
2023-01-23T09:09:19.211Z,42.28
2023-01-23T09:11:50.031Z,40.60
2023-01-23T09:14:18.664Z,40.58
2023-01-23T09:16:47.414Z,39.65
2023-01-23T09:19:16.308Z,35.67
2023-01-23T09:21:48.022Z,33.33
2023-01-23T09:24:17.349Z,34.15
2023-01-23T09:26:45.765Z,32.63
2023-01-23T09:29:15.219Z,36.25
2023-01-23T09:31:46.864Z,34.92
2023-01-23T09:34:17.525Z,34.80
2023-01-23T09:36:46.125Z,35.15
2023-01-23T09:39:15.078Z,37.50
2023-01-23T09:41:45.599Z,32.17
2023-01-23T09:44:21.447Z,33.25
2023-01-23T09:46:55.826Z,33.88
2023-01-23T09:49:23.895Z,32.05
2023-01-23T09:52:03.040Z,29.85
2023-01-23T09:54:31.398Z,28.52
2023-01-23T09:57:01.756Z,26.02
2023-01-23T09:59:53.755Z,25.08
2023-01-23T10:02:29.266Z,26.50
2023-01-23T10:05:02.498Z,27.95
2023-01-23T10:07:52.797Z,27.02
2023-01-23T10:10:25.518Z,27.80
2023-01-23T10:13:03.362Z,25.02
2023-01-23T10:15:34.633Z,25.23
2023-01-23T10:18:02.655Z,22.50
2023-01-23T10:20:43.008Z,26.80
2023-01-23T10:23:13.205Z,25.65
2023-01-23T10:25:41.896Z,28.67
2023-01-23T10:28:29.632Z,28.05
2023-01-23T10:31:01.687Z,31.55
2023-01-23T10:33:38.682Z,29.65
2023-01-23T10:36:17.616Z,25.02
2023-01-23T10:39:00.747Z,26.75
2023-01-23T10:41:31.300Z,25.40
2023-01-23T10:44:12.328Z,20.17
2023-01-23T10:46:48.949Z,26.55
2023-01-23T10:49:31.379Z,25.65
2023-01-23T10:52:02.821Z,19.67
2023-01-23T10:54:45.425Z,21.45
2023-01-23T10:57:15.779Z,24.75
2023-01-23T10:59:50.892Z,21.05
2023-01-23T11:02:27.352Z,22.30
2023-01-23T11:04:58.258Z,24.98
2023-01-23T11:07:26.588Z,20.77
2023-01-23T11:10:00.814Z,23.85
2023-01-23T11:12:47.365Z,24.73
2023-01-23T11:15:25.909Z,27.75
2023-01-23T11:17:55.153Z,22.83
2023-01-23T11:20:26.992Z,23.90
2023-01-23T11:23:05.883Z,22.77
2023-01-23T11:25:42.368Z,20.65
2023-01-23T11:28:19.621Z,21.45
2023-01-23T11:31:14.053Z,22.15
2023-01-23T11:34:00.193Z,24.48
2023-01-23T11:36:51.200Z,22.92
2023-01-23T11:39:19.370Z,19.92
2023-01-23T11:41:47.900Z,17.33
2023-01-23T11:44:22.673Z,23.23
2023-01-23T11:46:54.599Z,19.13
2023-01-23T11:49:28.242Z,19.92
2023-01-23T11:51:56.390Z,18.80
2023-01-23T11:54:45.520Z,21.88
2023-01-23T11:57:39.743Z,16.83
2023-01-23T12:02:53.621Z,17.52
2023-01-23T12:05:27.814Z,19.40
2023-01-23T12:07:55.743Z,14.05
2023-01-23T12:10:36.328Z,14.90
2023-01-23T12:13:23.269Z,14.93
2023-01-23T12:16:04.287Z,14.15
2023-01-23T12:18:51.531Z,17.00
2023-01-23T12:21:21.305Z,12.00
2023-01-23T12:23:58.663Z,14.18
2023-01-23T12:26:30.005Z,11.63
2023-01-23T12:29:07.209Z,11.45
2023-01-23T12:31:37.717Z,15.35
2023-01-23T12:34:24.504Z,14.48
2023-01-23T12:37:31.166Z,10.50
2023-01-23T12:40:08.437Z,14.07
2023-01-23T12:42:50.258Z,14.73
2023-01-23T12:45:24.337Z,12.55
2023-01-23T12:48:04.902Z,13.70
2023-01-23T12:50:36.608Z,16.85
2023-01-23T12:53:12.729Z,15.25
2023-01-23T12:56:02.546Z,14.23
2023-01-23T12:58:36.352Z,15.68
2023-01-23T13:01:05.341Z,11.50
2023-01-23T13:03:46.284Z,13.27
2023-01-23T13:06:19.873Z,13.98
2023-01-23T13:09:05.570Z,12.88
2023-01-23T13:11:58.877Z,12.85
2023-01-23T13:15:03.601Z,9.63
2023-01-23T13:17:45.485Z,14.45
2023-01-23T13:20:34.510Z,12.38
2023-01-23T13:23:22.269Z,15.82
2023-01-23T13:25:51.263Z,14.85
2023-01-23T13:28:44.410Z,14.27
2023-01-23T13:33:44.718Z,12.77
2023-01-23T13:36:17.206Z,15.60
2023-01-23T13:39:00.476Z,13.68
2023-01-23T13:41:29.990Z,10.73
2023-01-23T13:44:17.995Z,9.70
2023-01-23T14:24:45.223Z,19.30
2023-01-23T14:27:22.036Z,15.02
2023-01-23T14:29:58.897Z,17.98
2023-01-23T14:32:30.886Z,14.65
2023-01-23T14:34:59.771Z,17.58
2023-01-23T14:37:28.256Z,15.40
2023-01-23T14:40:09.922Z,15.02
2023-01-23T14:42:42.641Z,15.32
2023-01-23T14:45:12.788Z,12.57
2023-01-23T14:47:45.425Z,13.80
2023-01-23T14:50:31.753Z,11.38
2023-01-23T14:53:06.022Z,13.73
2023-01-23T14:55:41.176Z,16.65
2023-01-23T14:58:24.424Z,16.23
2023-01-23T15:00:55.213Z,12.73
2023-01-23T15:03:40.280Z,13.70
2023-01-23T15:06:12.510Z,14.43
2023-01-23T15:08:41.336Z,15.35
2023-01-23T15:11:12.085Z,16.13
2023-01-23T15:13:40.660Z,13.98
2023-01-23T15:16:14.695Z,11.88
2023-01-23T15:19:01.060Z,14.52
2023-01-23T15:21:30.298Z,13.68
2023-01-23T15:24:17.711Z,18.05
2023-01-23T15:26:59.544Z,13.45
2023-01-23T15:29:27.901Z,15.93
2023-01-23T15:31:57.225Z,9.85
2023-01-23T15:34:27.460Z,11.38
2023-01-23T15:37:18.580Z,9.85
2023-01-23T15:39:51.558Z,10.68
2023-01-23T15:42:19.744Z,10.88
2023-01-23T15:44:47.945Z,8.82
2023-01-23T15:47:16.096Z,8.30
2023-01-23T15:49:46.577Z,10.77
2023-01-23T15:52:20.365Z,10.90
2023-01-23T15:54:50.207Z,10.85
2023-01-23T15:57:19.540Z,8.95
2023-01-23T15:59:47.991Z,12.05
2023-01-23T16:02:30.085Z,11.32
2023-01-23T16:05:02.123Z,11.07
2023-01-23T16:10:16.788Z,11.90
2023-01-23T16:12:46.783Z,12.18
2023-01-23T16:15:16.352Z,15.27
2023-01-23T16:17:49.175Z,13.77
2023-01-23T16:20:21.528Z,14.50
2023-01-23T16:22:56.568Z,11.00
2023-01-23T16:25:41.888Z,13.63
2023-01-23T16:28:15.970Z,13.60
2023-01-23T16:30:44.996Z,11.30
2023-01-23T16:33:19.908Z,12.85
2023-01-23T16:35:55.340Z,12.73
2023-01-23T16:38:30.344Z,14.85
2023-01-23T16:40:59.901Z,12.27
2023-01-23T16:43:31.110Z,14.27
2023-01-23T16:46:02.402Z,14.25
2023-01-23T16:48:33.385Z,15.75
2023-01-23T16:51:08.078Z,16.48
2023-01-23T16:53:38.999Z,14.90
2023-01-23T16:56:07.683Z,15.15
2023-01-23T16:58:39.831Z,14.73
2023-01-23T17:01:21.763Z,20.45
2023-01-23T17:03:57.025Z,15.05
2023-01-23T17:06:28.586Z,17.65
2023-01-23T17:08:57.130Z,16.85
2023-01-23T17:11:28.941Z,17.48
2023-01-23T17:13:59.678Z,15.02
2023-01-23T17:16:28.551Z,17.65
2023-01-23T17:19:01.351Z,20.52
2023-01-23T17:21:34.215Z,18.10
2023-01-23T17:24:05.771Z,19.73
2023-01-23T17:26:39.077Z,18.52
2023-01-23T17:29:08.141Z,18.90
2023-01-23T17:31:36.685Z,22.25
2023-01-23T17:34:06.758Z,20.05
2023-01-23T17:36:38.395Z,20.33
2023-01-23T17:39:10.555Z,22.13
2023-01-23T17:41:39.180Z,18.42
2023-01-23T17:44:10.112Z,21.48
2023-01-23T17:46:39.516Z,22.63
2023-01-23T17:49:21.387Z,24.70
2023-01-23T17:51:49.903Z,19.90
2023-01-23T17:54:20.762Z,20.40
2023-01-23T17:56:49.747Z,18.38
2023-01-23T17:59:17.995Z,19.80
2023-01-23T18:01:48.671Z,19.35
2023-01-23T18:04:20.277Z,21.20
2023-01-23T18:06:49.240Z,20.15
2023-01-23T18:09:22.050Z,23.48
2023-01-23T18:11:54.374Z,21.00
2023-01-23T18:14:26.711Z,18.13
2023-01-23T18:16:55.679Z,18.50
2023-01-23T18:19:25.685Z,21.05
2023-01-23T18:21:58.921Z,22.63
2023-01-23T18:24:29.992Z,20.80
2023-01-23T18:27:00.089Z,16.52
2023-01-23T18:29:34.186Z,17.90
2023-01-23T18:32:24.160Z,22.42
2023-01-23T18:34:54.574Z,18.30
2023-01-23T18:37:29.346Z,18.60
2023-01-23T18:40:27.117Z,19.13
2023-01-23T18:42:55.569Z,17.85
2023-01-23T18:45:27.719Z,20.42
2023-01-23T18:47:57.238Z,13.50
2023-01-23T18:50:30.794Z,22.67
2023-01-23T18:55:30.262Z,23.00
2023-01-23T18:58:00.751Z,23.83
2023-01-23T19:00:29.023Z,22.92
2023-01-23T19:03:02.772Z,21.73
2023-01-23T19:05:36.071Z,20.38
2023-01-23T19:08:06.944Z,20.60
2023-01-23T19:10:48.382Z,24.02
2023-01-23T19:13:21.854Z,18.73
2023-01-23T19:15:50.176Z,22.73
2023-01-23T19:18:43.035Z,18.25
2023-01-23T19:21:23.597Z,20.45
2023-01-23T19:24:02.167Z,17.52
2023-01-23T19:26:36.478Z,19.20
2023-01-23T19:29:20.345Z,17.25
2023-01-23T19:32:03.614Z,18.58
2023-01-23T19:34:35.276Z,17.33
2023-01-23T19:37:07.272Z,18.23
2023-01-23T19:39:35.972Z,19.13
2023-01-23T19:42:04.431Z,18.02
2023-01-23T19:44:33.767Z,23.50
2023-01-23T19:47:03.525Z,18.90
2023-01-23T19:49:31.936Z,17.42
2023-01-23T19:52:00.526Z,19.05
2023-01-23T19:54:46.024Z,18.27
2023-01-23T19:57:17.282Z,19.90
2023-01-23T19:59:48.348Z,20.15
2023-01-23T20:02:20.994Z,17.50
2023-01-23T20:04:52.080Z,18.42
2023-01-23T20:07:24.458Z,17.42
2023-01-23T20:09:53.138Z,21.48
2023-01-23T20:12:28.592Z,19.88
2023-01-23T20:15:01.009Z,21.70
2023-01-23T20:17:38.374Z,17.63
2023-01-23T20:20:09.546Z,18.95
2023-01-23T20:22:43.238Z,24.35
2023-01-23T20:25:15.807Z,19.05
2023-01-23T20:27:44.903Z,22.15
2023-01-23T20:30:17.580Z,20.05
2023-01-23T20:32:59.271Z,19.55
2023-01-23T20:35:31.252Z,17.73
2023-01-23T20:37:59.927Z,20.75
2023-01-23T20:40:28.478Z,21.05
2023-01-23T20:42:57.060Z,20.90
2023-01-23T20:45:26.655Z,21.35
2023-01-23T20:47:57.894Z,18.50
2023-01-23T20:50:28.709Z,16.40
2023-01-23T20:53:14.547Z,16.35
2023-01-23T20:55:42.811Z,16.50
2023-01-23T20:58:29.922Z,17.98
2023-01-23T21:01:01.157Z,18.58
2023-01-23T21:03:31.183Z,15.77
2023-01-23T21:06:01.960Z,14.55
2023-01-23T21:08:31.076Z,15.57
2023-01-23T21:10:59.539Z,13.05
2023-01-23T21:13:27.941Z,12.63
2023-01-23T21:16:01.595Z,14.63
2023-01-23T21:18:35.698Z,15.73
2023-01-23T21:21:07.715Z,14.43
2023-01-23T21:23:38.396Z,15.95
2023-01-23T21:26:07.339Z,16.30
2023-01-23T21:28:38.351Z,15.80
2023-01-23T21:31:11.418Z,13.98
2023-01-23T21:33:40.492Z,13.68
2023-01-23T21:36:12.515Z,13.50
2023-01-23T21:38:42.280Z,14.83
2023-01-23T21:41:12.246Z,14.82
2023-01-23T21:43:40.548Z,15.32
2023-01-23T21:46:11.430Z,13.23
2023-01-23T21:48:42.442Z,12.60
2023-01-23T21:51:13.745Z,11.20
2023-01-23T21:53:44.009Z,15.07
2023-01-23T21:56:18.008Z,11.30
2023-01-23T21:58:47.065Z,14.73
2023-01-23T22:01:33.999Z,15.68
2023-01-23T22:04:02.662Z,12.57
2023-01-23T22:06:35.173Z,12.98
2023-01-23T22:09:05.053Z,15.05
2023-01-23T22:11:34.883Z,15.10
2023-01-23T22:14:04.407Z,16.20
2023-01-23T22:16:47.363Z,14.40
2023-01-23T22:19:17.506Z,12.43
2023-01-23T22:21:48.809Z,14.15
2023-01-23T22:24:17.807Z,14.80
2023-01-23T22:26:49.116Z,17.35
2023-01-23T22:29:17.661Z,14.23
2023-01-23T22:31:46.940Z,18.48
2023-01-23T22:34:16.940Z,15.93
2023-01-23T22:36:50.079Z,14.52
2023-01-23T22:39:19.746Z,14.63
2023-01-23T22:41:51.125Z,16.38
2023-01-23T22:44:20.446Z,16.05
2023-01-23T22:46:52.495Z,17.00
2023-01-23T22:49:20.826Z,15.30
2023-01-23T22:51:52.548Z,16.15
2023-01-23T22:54:25.461Z,15.50
2023-01-23T22:56:54.064Z,17.52
2023-01-23T22:59:22.469Z,16.75
2023-01-23T23:01:51.244Z,14.93
2023-01-23T23:04:19.813Z,17.10
2023-01-23T23:06:48.564Z,16.55
2023-01-23T23:09:16.863Z,17.95
2023-01-23T23:11:48.923Z,15.48
2023-01-23T23:14:26.379Z,14.85
2023-01-23T23:16:57.256Z,16.70
2023-01-23T23:19:29.298Z,16.05
2023-01-23T23:22:00.267Z,15.65
2023-01-23T23:24:28.628Z,18.10
2023-01-23T23:26:57.398Z,15.95
2023-01-23T23:29:28.114Z,17.85
2023-01-23T23:31:59.825Z,19.90
2023-01-23T23:34:28.574Z,15.82
2023-01-23T23:37:01.878Z,20.95
2023-01-23T23:39:33.380Z,17.65
2023-01-23T23:42:01.781Z,16.30
2023-01-23T23:44:34.879Z,14.25
2023-01-23T23:47:03.536Z,17.00
2023-01-23T23:49:34.383Z,19.73
2023-01-23T23:52:05.090Z,16.52
2023-01-23T23:54:36.768Z,16.42
2023-01-23T23:57:05.173Z,16.45
2023-01-23T23:59:34.050Z,17.05
